Time;durP1;ratioP1;P1;durP2;ratioP2;P2;SDS_P1;SDS_P2;PMS_P1;PMS_P2;Temp;Humidity;BMP_temperature;BMP_pressure;BME280_temperature;BME280_humidity;BME280_pressure;Samples;Min_cycle;Max_cycle;Signal;HPM_P1;HPM_P2
2022/06/01 00:01:07;;;;;;;3.60;2.50;;;;;;;14.99;68.56;99713.89;1741399;82;20982;-43
2022/06/01 00:03:38;;;;;;;4.40;2.60;;;;;;;14.95;68.71;99713.09;1741243;82;21086;-43
2022/06/01 00:06:04;;;;;;;3.22;2.80;;;;;;;14.96;68.73;99707.81;1741289;82;21085;-43
2022/06/01 00:08:31;;;;;;;3.90;2.67;;;;;;;14.95;68.79;99712.31;1741406;82;21010;-43
2022/06/01 00:10:58;;;;;;;5.12;2.87;;;;;;;14.91;68.84;99708.17;1741119;82;21026;-43
2022/06/01 00:13:26;;;;;;;3.62;2.85;;;;;;;14.86;69.04;99704.45;1741051;82;21038;-43
2022/06/01 00:15:54;;;;;;;3.30;2.75;;;;;;;14.85;69.13;99708.34;1736907;82;21514;-43
2022/06/01 00:18:22;;;;;;;3.20;2.80;;;;;;;14.85;69.14;99699.37;1741297;82;21048;-43
2022/06/01 00:20:50;;;;;;;6.62;3.10;;;;;;;14.84;69.15;99701.31;1741491;82;20983;-43
2022/06/01 00:23:18;;;;;;;3.58;2.87;;;;;;;14.79;69.37;99704.39;1741249;82;20987;-43
2022/06/01 00:25:45;;;;;;;4.67;3.12;;;;;;;14.76;69.47;99702.43;1741544;82;20975;-43
2022/06/01 00:28:11;;;;;;;4.12;2.70;;;;;;;14.72;69.66;99705.69;1741547;82;21663;-43
2022/06/01 00:30:39;;;;;;;4.83;3.17;;;;;;;14.71;69.67;99702.78;1741280;82;22067;-43
2022/06/01 00:33:05;;;;;;;5.53;3.47;;;;;;;14.76;69.57;99702.43;1749079;82;21053;-43
2022/06/01 00:35:33;;;;;;;6.08;3.90;;;;;;;14.74;69.58;99699.28;1750739;82;21072;-43
2022/06/01 00:38:00;;;;;;;4.42;3.20;;;;;;;14.72;69.65;99706.47;1750919;82;21011;-43
2022/06/01 00:40:28;;;;;;;4.12;3.20;;;;;;;14.69;69.76;99697.69;1750816;82;21009;-43
2022/06/01 00:42:58;;;;;;;4.25;3.58;;;;;;;14.65;69.85;99702.34;1750754;82;21323;-43
2022/06/01 00:45:27;;;;;;;4.30;3.25;;;;;;;14.67;69.83;99708.19;1750806;82;21527;-43
2022/06/01 00:47:54;;;;;;;5.23;3.53;;;;;;;14.67;69.88;99710.92;1751127;82;21532;-43
2022/06/01 00:50:28;;;;;;;6.17;3.35;;;;;;;14.64;69.94;99710.32;1750842;82;21084;-43
2022/06/01 00:53:07;;;;;;;4.97;3.40;;;;;;;14.62;70.01;99710.51;1750847;82;21037;-43
2022/06/01 00:55:38;;;;;;;6.45;3.52;;;;;;;14.61;70.14;99713.03;1751000;82;21310;-43
2022/06/01 00:58:10;;;;;;;5.42;3.55;;;;;;;14.63;70.08;99707.95;1710241;83;20961;-43
2022/06/01 01:00:38;;;;;;;10.53;4.00;;;;;;;14.64;70.07;99719.09;1715037;83;21514;-43
2022/06/01 01:03:06;;;;;;;5.62;4.20;;;;;;;14.63;70.08;99716.14;1685704;83;21043;-43
2022/06/01 01:05:33;;;;;;;5.03;4.03;;;;;;;14.59;70.07;99713.97;1715170;83;21012;-43
2022/06/01 01:08:03;;;;;;;9.08;3.90;;;;;;;14.52;70.17;99708.47;1715071;83;21145;-43
2022/06/01 01:10:30;;;;;;;5.30;3.47;;;;;;;14.52;70.31;99709.84;1715349;83;28828;-43
2022/06/01 01:13:04;;;;;;;6.50;3.95;;;;;;;14.57;70.23;99714.95;1714807;83;21586;-43
2022/06/01 01:15:34;;;;;;;5.20;3.98;;;;;;;14.54;70.27;99711.59;1714230;83;20974;-43
2022/06/01 01:18:06;;;;;;;7.17;4.45;;;;;;;14.50;70.31;99712.14;1713500;83;21072;-43
2022/06/01 01:20:37;;;;;;;5.78;3.70;;;;;;;14.46;70.35;99712.13;1714857;83;20984;-43
2022/06/01 01:23:52;;;;;;;7.92;4.08;;;;;;;14.43;70.44;99713.44;1714763;83;21076;-43
2022/06/01 01:26:20;;;;;;;4.50;3.72;;;;;;;14.43;70.50;99717.52;1714699;83;21475;-43
2022/06/01 01:28:46;;;;;;;4.37;3.92;;;;;;;14.31;70.77;99716.63;1710181;83;21051;-43
2022/06/01 01:31:17;;;;;;;6.15;3.65;;;;;;;14.26;70.85;99717.55;1714344;83;21506;-43
2022/06/01 01:33:45;;;;;;;4.17;3.30;;;;;;;14.23;70.94;99719.06;1707175;84;21825;-43
2022/06/01 01:36:14;;;;;;;5.97;3.60;;;;;;;14.25;70.81;99716.77;1706913;84;20914;-43
2022/06/01 01:39:10;;;;;;;4.70;3.75;;;;;;;14.31;70.53;99719.36;1706928;84;21551;-43
2022/06/01 01:41:48;;;;;;;8.10;3.60;;;;;;;14.31;70.27;99715.27;1707059;84;21016;-43
2022/06/01 01:44:34;;;;;;;6.92;3.42;;;;;;;14.28;70.26;99718.73;1707385;84;21052;-43
2022/06/01 01:47:05;;;;;;;6.85;3.40;;;;;;;14.30;70.37;99726.55;1707077;84;21535;-43
2022/06/01 01:49:35;;;;;;;4.90;3.25;;;;;;;14.39;70.32;99728.98;1707340;84;21000;-43
2022/06/01 01:52:15;;;;;;;6.12;3.62;;;;;;;14.46;70.04;99729.06;1707109;84;20934;-43
2022/06/01 01:55:03;;;;;;;5.28;3.45;;;;;;;14.49;69.63;99725.58;1706989;84;21608;-43
2022/06/01 01:57:43;;;;;;;5.40;3.67;;;;;;;14.47;69.47;99723.82;1706523;84;20961;-43
2022/06/01 02:00:18;;;;;;;5.80;3.75;;;;;;;14.42;69.17;99725.53;1742861;82;21135;-43
2022/06/01 02:03:05;;;;;;;5.47;3.08;;;;;;;14.39;69.04;99720.23;1742842;82;21485;-43
2022/06/01 02:06:05;;;;;;;9.30;3.52;;;;;;;14.38;69.33;99716.53;1742836;82;21018;-43
2022/06/01 02:08:55;;;;;;;7.62;3.20;;;;;;;14.39;68.99;99717.50;1707321;84;21000;-43
2022/06/01 02:14:54;;;;;;;5.15;3.30;;;;;;;14.28;68.64;99720.70;1707223;84;21866;-43
2022/06/01 02:17:26;;;;;;;4.10;2.90;;;;;;;14.17;68.81;99712.41;1706978;84;21534;-43
2022/06/01 02:20:00;;;;;;;4.53;3.20;;;;;;;14.13;68.68;99712.95;1707281;84;20984;-43
2022/06/01 02:22:27;;;;;;;8.50;3.98;;;;;;;14.13;68.46;99710.23;1707283;84;21584;-43
2022/06/01 02:24:54;;;;;;;6.20;3.77;;;;;;;14.14;68.59;99713.14;1707464;84;21084;-43
2022/06/01 02:27:21;;;;;;;5.12;3.85;;;;;;;14.12;68.68;99711.37;1707349;84;23098;-43
2022/06/01 02:29:53;;;;;;;5.58;3.72;;;;;;;14.10;68.74;99710.95;1707330;84;20957;-43
2022/06/01 02:32:19;;;;;;;5.05;3.17;;;;;;;14.09;68.67;99717.56;1707433;83;21459;-43
2022/06/01 02:34:46;;;;;;;4.55;3.33;;;;;;;14.11;68.59;99716.63;1707413;84;21596;-43
2022/06/01 02:37:14;;;;;;;5.95;3.00;;;;;;;14.21;68.40;99718.67;1707375;84;21068;-43
2022/06/01 02:39:44;;;;;;;5.90;4.10;;;;;;;14.27;68.30;99719.13;1707450;84;21182;-43
2022/06/01 02:42:28;;;;;;;6.22;3.72;;;;;;;14.31;68.31;99716.63;1707873;84;21020;-43
2022/06/01 02:45:01;;;;;;;4.35;3.60;;;;;;;14.35;68.28;99710.63;1707400;84;21067;-43
2022/06/01 02:47:33;;;;;;;4.90;3.35;;;;;;;14.37;68.16;99715.75;1707096;84;20957;-43
2022/06/01 02:50:00;;;;;;;4.95;3.67;;;;;;;14.41;67.99;99713.83;1707349;84;21033;-43
2022/06/01 02:52:27;;;;;;;5.70;3.60;;;;;;;14.49;67.89;99708.62;1743021;82;21243;-43
2022/06/01 02:54:56;;;;;;;7.37;3.77;;;;;;;14.52;67.61;99708.47;1743107;81;21009;-43
2022/06/01 02:57:22;;;;;;;5.03;4.00;;;;;;;14.52;67.64;99708.47;1742872;82;20978;-43
2022/06/01 02:59:50;;;;;;;4.47;3.58;;;;;;;14.49;67.58;99708.62;1742711;82;20942;-43
2022/06/01 03:02:17;;;;;;;4.15;3.40;;;;;;;14.47;67.93;99707.45;1742831;82;21026;-43
2022/06/01 03:04:45;;;;;;;6.67;3.12;;;;;;;14.46;67.54;99701.20;1743112;81;21053;-43
2022/06/01 03:07:12;;;;;;;6.17;3.33;;;;;;;14.51;67.29;99700.08;1742827;81;21527;-43
2022/06/01 03:09:39;;;;;;;5.72;3.50;;;;;;;14.52;67.33;99701.66;1743050;82;20961;-43
2022/06/01 03:12:09;;;;;;;4.97;3.55;;;;;;;14.51;66.92;99702.23;1742957;82;21077;-43
2022/06/01 03:14:37;;;;;;;5.22;3.37;;;;;;;14.48;66.99;99702.17;1743121;81;21053;-43
2022/06/01 03:17:05;;;;;;;4.70;3.00;;;;;;;14.47;67.19;99703.36;1743101;82;21235;-43
2022/06/01 03:19:32;;;;;;;6.20;3.00;;;;;;;14.47;67.12;99701.42;1743035;82;21009;-43
2022/06/01 03:22:01;;;;;;;4.87;2.80;;;;;;;14.53;66.68;99702.63;1742800;82;21072;-43
2022/06/01 03:24:27;;;;;;;7.22;3.10;;;;;;;14.56;66.60;99705.19;1742947;82;20970;-43
2022/06/01 03:26:54;;;;;;;5.30;2.90;;;;;;;14.56;66.09;99699.73;1743121;81;21013;-43
2022/06/01 03:29:21;;;;;;;4.25;2.83;;;;;;;14.56;65.57;99699.16;1743244;82;21093;-43
2022/06/01 03:31:48;;;;;;;4.70;2.85;;;;;;;14.59;65.28;99705.79;1742760;81;21044;-44
2022/06/01 03:34:14;;;;;;;3.50;2.45;;;;;;;14.64;65.27;99709.53;1742901;81;21021;-43
2022/06/01 03:36:41;;;;;;;3.67;2.60;;;;;;;14.73;65.18;99700.44;1742992;82;21000;-43
2022/06/01 03:39:10;;;;;;;3.08;2.50;;;;;;;14.87;64.59;99697.02;1742864;81;20958;-43
2022/06/01 03:41:38;;;;;;;8.25;3.10;;;;;;;14.95;64.39;99689.89;1742932;81;21297;-43
2022/06/01 03:46:52;;;;;;;5.60;2.85;;;;;;;15.09;64.03;99690.55;1742978;82;21009;-43
2022/06/01 03:49:19;;;;;;;4.75;2.80;;;;;;;15.12;63.55;99689.78;1743165;81;21045;-43
2022/06/01 03:51:47;;;;;;;4.83;3.22;;;;;;;15.15;63.23;99693.12;1743159;81;21006;-44
2022/06/01 03:54:15;;;;;;;4.78;2.72;;;;;;;15.19;63.53;99687.89;1743133;82;21292;-44
2022/06/01 03:56:44;;;;;;;3.33;2.47;;;;;;;15.25;63.23;99686.16;1743171;81;20993;-44
2022/06/01 03:59:12;;;;;;;7.30;2.90;;;;;;;15.32;63.42;99677.98;1743007;82;21081;-43
2022/06/01 04:01:39;;;;;;;4.90;3.10;;;;;;;15.38;63.22;99672.36;1742869;81;21005;-43
2022/06/01 04:04:06;;;;;;;6.17;3.27;;;;;;;15.42;63.21;99673.16;1742905;81;21033;-43
2022/06/01 04:06:33;;;;;;;4.25;3.12;;;;;;;15.45;63.02;99677.84;1742821;81;21140;-44
2022/06/01 04:08:59;;;;;;;5.35;3.00;;;;;;;15.48;63.07;99677.09;1742861;81;21584;-44
2022/06/01 04:11:26;;;;;;;6.00;3.10;;;;;;;15.52;62.94;99679.28;1742604;82;20934;-44
2022/06/01 04:13:54;;;;;;;4.17;2.70;;;;;;;15.57;62.86;99680.28;1742859;81;21812;-44
2022/06/01 04:16:21;;;;;;;4.95;2.70;;;;;;;15.62;62.48;99685.38;1742890;82;21007;-43
2022/06/01 04:18:49;;;;;;;4.78;3.05;;;;;;;15.74;62.41;99688.33;1742893;81;21619;-43
2022/06/01 04:21:19;;;;;;;4.80;3.12;;;;;;;15.85;62.21;99688.56;1742884;81;20930;-44
2022/06/01 04:23:45;;;;;;;5.03;3.12;;;;;;;15.93;61.40;99681.94;1743297;81;21034;-43
2022/06/01 04:26:16;;;;;;;4.50;3.02;;;;;;;16.02;61.01;99689.79;1743141;81;21622;-44
2022/06/01 04:28:41;;;;;;;4.08;3.10;;;;;;;16.07;60.38;99680.59;1742797;81;21355;-43
2022/06/01 04:31:07;;;;;;;4.30;3.12;;;;;;;16.12;60.23;99688.25;1742776;82;21128;-43
2022/06/01 04:33:38;;;;;;;4.17;3.10;;;;;;;16.16;60.61;99683.56;1750939;81;20921;-43
2022/06/01 04:36:06;;;;;;;4.87;3.58;;;;;;;16.21;60.06;99685.91;1756435;81;21495;-43
2022/06/01 04:38:32;;;;;;;5.83;3.90;;;;;;;16.24;59.96;99682.39;1756420;81;21016;-44
2022/06/01 04:40:59;;;;;;;3.47;2.85;;;;;;;16.26;60.40;99684.16;1756296;81;20969;-43
2022/06/01 04:43:26;;;;;;;6.28;3.17;;;;;;;16.33;60.66;99685.52;1756255;81;21218;-44
2022/06/01 04:45:54;;;;;;;8.35;3.30;;;;;;;16.43;60.34;99682.80;1756290;81;21036;-43
2022/06/01 04:48:20;;;;;;;3.80;2.77;;;;;;;16.49;60.05;99681.23;1756523;81;20957;-44
2022/06/01 04:50:47;;;;;;;3.42;2.65;;;;;;;16.57;60.30;99683.38;1756461;81;21487;-43
2022/06/01 04:53:16;;;;;;;4.67;2.52;;;;;;;16.63;60.00;99677.75;1756262;81;21035;-44
2022/06/01 04:55:44;;;;;;;3.60;2.77;;;;;;;16.73;60.27;99683.02;1756710;81;21210;-44
2022/06/01 04:58:11;;;;;;;5.12;2.58;;;;;;;16.82;59.68;99682.03;1756155;81;21016;-44
2022/06/01 05:00:39;;;;;;;4.22;2.45;;;;;;;16.91;59.29;99688.66;1756229;81;21008;-44
2022/06/01 05:03:08;;;;;;;;;;;;;;;17.00;59.15;99687.47;1758855;81;20972;-43
2022/06/01 05:05:37;;;;;;;4.25;2.37;;;;;;;17.09;58.99;99685.12;1756310;81;20521;-43
2022/06/01 05:08:05;;;;;;;3.20;2.10;;;;;;;17.07;59.45;99684.14;1755983;81;21239;-44
2022/06/01 05:10:34;;;;;;;3.10;2.42;;;;;;;17.18;59.19;99688.23;1756410;81;21080;-44
2022/06/01 05:13:01;;;;;;;2.52;2.33;;;;;;;17.29;59.26;99687.59;1756040;81;21040;-44
2022/06/01 05:15:27;;;;;;;2.90;2.27;;;;;;;17.37;58.89;99679.56;1756087;81;21044;-44
2022/06/01 05:17:55;;;;;;;4.15;2.20;;;;;;;17.44;58.80;99682.26;1756271;81;21040;-44
2022/06/01 05:20:22;;;;;;;2.80;2.42;;;;;;;17.54;58.22;99682.02;1756127;81;21247;-44
2022/06/01 05:22:49;;;;;;;5.50;2.37;;;;;;;17.60;58.35;99678.52;1756022;81;21470;-44
2022/06/01 05:25:16;;;;;;;4.33;2.42;;;;;;;17.67;58.41;99677.09;1756059;81;21173;-44
2022/06/01 05:27:43;;;;;;;4.83;2.37;;;;;;;17.75;58.89;99681.37;1756331;81;21016;-44
2022/06/01 05:30:11;;;;;;;4.37;2.30;;;;;;;17.87;58.86;99678.75;1756430;81;20973;-44
2022/06/01 05:32:37;;;;;;;5.22;2.40;;;;;;;18.03;58.48;99681.02;1755168;81;21855;-44
2022/06/01 05:35:07;;;;;;;6.35;2.52;;;;;;;18.17;57.79;99680.34;1743121;81;21275;-43
2022/06/01 05:37:34;;;;;;;4.25;2.05;;;;;;;18.29;58.03;99683.20;1742935;81;21005;-44
2022/06/01 05:40:01;;;;;;;2.87;2.37;;;;;;;18.42;57.86;99684.87;1742776;81;21089;-43
2022/06/01 05:42:27;;;;;;;3.12;2.50;;;;;;;18.53;57.51;99685.02;1742974;81;20982;-44
2022/06/01 05:44:56;;;;;;;4.58;2.60;;;;;;;18.63;57.78;99691.02;1742768;81;21552;-44
2022/06/01 05:47:22;;;;;;;7.62;2.70;;;;;;;18.72;57.57;99687.01;1742788;82;21701;-44
2022/06/01 05:49:49;;;;;;;4.15;2.58;;;;;;;18.82;57.79;99692.41;1742717;82;20989;-44
2022/06/01 05:52:18;;;;;;;10.63;2.72;;;;;;;18.91;57.45;99686.44;1742978;82;21065;-44
2022/06/01 05:54:46;;;;;;;3.87;2.55;;;;;;;18.96;57.15;99680.50;1738044;81;21058;-44
2022/06/01 05:57:13;;;;;;;6.33;2.77;;;;;;;19.02;57.24;99674.16;1734897;82;21221;-44
2022/06/01 05:59:40;;;;;;;4.50;2.60;;;;;;;19.09;57.02;99672.70;1734309;82;20974;-44
2022/06/01 06:02:08;;;;;;;2.92;2.62;;;;;;;19.17;57.37;99667.14;1734569;82;20931;-44
2022/06/01 06:04:35;;;;;;;8.00;2.85;;;;;;;19.22;56.67;99664.70;1734425;82;20941;-44
2022/06/01 06:07:02;;;;;;;6.12;3.12;;;;;;;19.29;56.59;99665.22;1734705;82;21069;-44
2022/06/01 06:09:31;;;;;;;4.55;2.98;;;;;;;19.35;56.71;99672.62;1734695;82;20926;-44
2022/06/01 06:11:58;;;;;;;3.85;3.17;;;;;;;19.42;57.07;99662.89;1734829;82;20985;-44
2022/06/01 06:14:25;;;;;;;4.92;3.10;;;;;;;19.51;57.06;99662.42;1734522;82;21069;-44
2022/06/01 06:16:52;;;;;;;4.78;2.70;;;;;;;19.60;56.88;99668.81;1734815;82;21523;-44
2022/06/01 06:19:20;;;;;;;4.87;2.92;;;;;;;19.67;56.20;99665.36;1734797;82;21045;-44
2022/06/01 06:21:47;;;;;;;7.72;2.47;;;;;;;19.76;55.95;99670.35;1734707;82;21198;-44
2022/06/01 06:24:18;;;;;;;4.83;3.22;;;;;;;19.83;55.98;99666.92;1734516;82;21516;-44
2022/06/01 06:26:46;;;;;;;3.67;2.70;;;;;;;19.92;55.81;99663.65;1734609;82;21515;-44
2022/06/01 06:29:15;;;;;;;3.25;2.95;;;;;;;19.99;56.20;99654.53;1734337;82;20969;-44
2022/06/01 06:31:42;;;;;;;4.08;2.80;;;;;;;20.07;55.84;99653.22;1734461;82;20990;-44
2022/06/01 06:34:09;;;;;;;4.05;3.00;;;;;;;20.17;56.28;99661.32;1742506;82;21797;-44
2022/06/01 06:36:35;;;;;;;4.40;3.27;;;;;;;20.26;56.18;99657.44;1748564;82;20930;-44
2022/06/01 06:39:02;;;;;;;3.65;3.27;;;;;;;20.38;56.40;99657.48;1748495;82;21013;-44
2022/06/01 06:41:29;;;;;;;4.22;3.12;;;;;;;20.49;55.84;99653.16;1748452;82;20921;-44
2022/06/01 06:43:56;;;;;;;4.45;3.25;;;;;;;20.59;56.25;99643.94;1748576;82;21083;-44
2022/06/01 06:46:23;;;;;;;4.15;3.33;;;;;;;20.71;56.72;99639.22;1747903;82;21096;-44
2022/06/01 06:48:50;;;;;;;5.83;3.55;;;;;;;20.84;56.27;99641.53;1728736;81;21904;-44
2022/06/01 06:51:18;;;;;;;5.70;3.45;;;;;;;20.97;56.27;99639.70;1720348;82;21053;-44
2022/06/01 06:53:45;;;;;;;6.15;3.50;;;;;;;21.10;55.91;99637.90;1745622;82;21012;-44
2022/06/01 06:56:15;;;;;;;4.22;3.55;;;;;;;21.24;55.18;99637.64;1747452;82;20957;-44
2022/06/01 06:58:43;;;;;;;7.17;3.70;;;;;;;21.36;55.85;99639.56;1741358;82;21144;-44
2022/06/01 07:01:10;;;;;;;5.92;3.60;;;;;;;21.47;55.05;99628.50;1718513;83;21574;-44
2022/06/01 07:03:38;;;;;;;6.28;3.83;;;;;;;21.57;55.48;99624.73;1718397;82;21011;-44
2022/06/01 07:06:17;;;;;;;4.78;3.85;;;;;;;21.72;54.29;99625.20;1718823;83;21096;-44
2022/06/01 07:08:46;;;;;;;5.67;4.08;;;;;;;21.80;54.46;99625.21;1721601;82;20989;-44
2022/06/01 07:11:13;;;;;;;;;;;;;;;21.89;54.88;99628.16;1750047;82;21219;-44
2022/06/01 07:13:40;;;;;;;5.03;4.17;;;;;;;21.99;55.17;99632.69;1748590;82;20196;-44
2022/06/01 07:16:14;;;;;;;5.85;3.98;;;;;;;22.02;55.32;99621.41;1743504;82;21010;-45
2022/06/01 07:18:47;;;;;;;7.15;4.45;;;;;;;22.19;55.04;99621.57;1746873;82;21547;-44
2022/06/01 07:21:17;;;;;;;8.23;3.98;;;;;;;22.33;55.07;99623.20;1727802;82;21077;-44
2022/06/01 07:23:44;;;;;;;5.78;4.53;;;;;;;22.48;54.35;99618.88;1718461;83;21281;-44
2022/06/01 07:26:15;;;;;;;6.85;4.12;;;;;;;22.61;54.23;99619.72;1718390;83;21539;-44
2022/06/01 07:28:42;;;;;;;6.50;4.08;;;;;;;22.72;53.84;99613.95;1718209;83;21047;-45
2022/06/01 07:31:08;;;;;;;5.55;4.22;;;;;;;22.80;53.27;99618.84;1718534;83;21005;-44
2022/06/01 07:33:35;;;;;;;6.30;4.28;;;;;;;22.91;52.90;99619.95;1716043;82;21855;-45
2022/06/01 07:36:07;;;;;;;7.28;4.60;;;;;;;22.98;52.87;99623.13;1704862;84;23243;-44
2022/06/01 07:44:25;;;;;;;5.60;4.08;;;;;;;23.33;52.28;99618.00;1712731;82;21520;-44
2022/06/01 07:46:52;;;;;;;6.25;4.55;;;;;;;23.45;52.40;99622.02;1705232;84;21547;-44
2022/06/01 07:49:20;;;;;;;6.95;4.60;;;;;;;23.54;51.99;99618.77;1705137;84;21134;-44
2022/06/01 07:51:50;;;;;;;6.30;4.83;;;;;;;23.59;51.74;99618.83;1704961;84;21019;-44
2022/06/01 07:54:16;;;;;;;5.55;4.72;;;;;;;23.73;51.50;99627.48;1704930;84;21500;-45
2022/06/01 07:56:43;;;;;;;6.20;4.22;;;;;;;23.81;51.03;99626.06;1705244;84;21574;-45
2022/06/01 07:59:10;;;;;;;5.80;4.67;;;;;;;23.88;51.06;99620.11;1705164;84;21014;-45
2022/06/01 08:01:38;;;;;;;6.40;4.67;;;;;;;23.97;51.76;99622.99;1705225;84;21093;-45
2022/06/01 08:04:06;;;;;;;15.00;5.50;;;;;;;24.08;51.30;99620.66;1705133;84;21012;-45
2022/06/01 08:06:34;;;;;;;6.47;4.42;;;;;;;24.14;50.10;99624.44;1705357;84;20969;-44
2022/06/01 08:09:02;;;;;;;7.92;5.20;;;;;;;24.15;49.99;99625.39;1713045;82;21918;-45
2022/06/01 08:14:14;;;;;;;4.83;4.20;;;;;;;24.11;50.21;99628.08;1712702;82;21234;-44
2022/06/01 08:16:44;;;;;;;5.30;4.60;;;;;;;24.07;50.35;99627.42;1729681;82;21012;-44
2022/06/01 08:19:11;;;;;;;7.53;4.45;;;;;;;24.10;50.30;99616.86;1728607;82;27551;-44
2022/06/01 08:21:38;;;;;;;8.60;4.20;;;;;;;24.13;50.64;99618.12;1704010;84;21132;-44
2022/06/01 08:24:06;;;;;;;6.72;4.70;;;;;;;24.16;50.30;99613.67;1704042;84;21089;-44
2022/06/01 08:26:34;;;;;;;5.83;4.40;;;;;;;24.20;50.07;99615.16;1704790;84;21115;-44
2022/06/01 08:29:02;;;;;;;7.60;4.20;;;;;;;24.32;50.28;99610.02;1704485;84;21037;-45
2022/06/01 08:31:32;;;;;;;6.95;4.42;;;;;;;24.44;49.64;99608.62;1704915;83;21037;-45
2022/06/01 08:34:00;;;;;;;6.60;4.53;;;;;;;24.61;48.73;99612.78;1705034;83;21104;-45
2022/06/01 08:36:27;;;;;;;5.95;3.92;;;;;;;24.73;48.59;99609.04;1705036;84;21029;-44
2022/06/01 08:38:54;;;;;;;9.10;4.30;;;;;;;24.86;48.23;99611.14;1711425;82;21199;-46
2022/06/01 08:41:25;;;;;;;8.55;3.92;;;;;;;25.03;48.16;99613.30;1704617;84;21022;-45
2022/06/01 08:43:55;;;;;;;5.47;4.08;;;;;;;25.21;47.79;99614.06;1730401;82;20974;-44
2022/06/01 08:46:25;;;;;;;6.20;4.00;;;;;;;25.40;47.48;99615.72;1723011;82;20977;-44
2022/06/01 08:48:59;;;;;;;7.55;4.55;;;;;;;25.52;47.58;99605.13;1708652;82;21097;-45
2022/06/01 08:51:29;;;;;;;5.90;3.83;;;;;;;25.63;46.99;99606.15;1717226;82;21237;-45
2022/06/01 08:53:57;;;;;;;9.40;5.20;;;;;;;25.73;47.01;99600.80;1710317;82;21531;-45
2022/06/01 08:56:32;;;;;;;7.55;4.72;;;;;;;25.88;46.51;99611.52;1704862;84;21964;-45
2022/06/01 08:59:30;;;;;;;6.47;4.35;;;;;;;25.99;45.58;99609.70;1710065;82;21224;-45
2022/06/01 09:02:21;;;;;;;6.28;3.85;;;;;;;26.06;44.44;99602.45;1733685;82;21037;-45
2022/06/01 09:05:08;;;;;;;5.85;4.17;;;;;;;26.14;44.39;99598.14;1734552;82;21256;-44
2022/06/01 09:07:52;;;;;;;6.35;4.50;;;;;;;26.22;45.39;99596.67;1733730;82;20993;-45
2022/06/01 09:10:39;;;;;;;7.00;4.03;;;;;;;26.28;44.52;99592.67;1731892;82;21006;-45
2022/06/01 09:13:23;;;;;;;5.40;3.92;;;;;;;26.33;44.23;99587.89;1704894;83;21064;-45
2022/06/01 09:16:11;;;;;;;5.92;4.22;;;;;;;26.41;44.70;99578.02;1704758;84;21527;-44
2022/06/01 09:18:49;;;;;;;7.03;4.20;;;;;;;26.46;44.61;99581.57;1705258;84;21141;-43
2022/06/01 09:24:24;;;;;;;5.95;4.42;;;;;;;26.42;44.82;99580.17;1705132;83;21017;-43
2022/06/01 09:27:04;;;;;;;5.55;4.00;;;;;;;26.37;45.05;99578.17;1705273;84;21017;-43
2022/06/01 09:29:45;;;;;;;6.20;4.22;;;;;;;26.41;44.78;99581.41;1705109;83;20938;-43
2022/06/01 09:32:30;;;;;;;6.42;4.05;;;;;;;26.46;44.49;99580.18;1704989;83;21949;-42
2022/06/01 09:35:03;;;;;;;6.55;4.25;;;;;;;26.50;43.96;99574.46;1718061;82;21033;-43
2022/06/01 09:37:45;;;;;;;6.15;4.87;;;;;;;26.45;44.01;99580.02;1718471;83;21579;-43
2022/06/01 09:40:26;;;;;;;6.78;4.60;;;;;;;26.39;44.12;99570.12;1718272;83;21291;-42
2022/06/01 09:42:54;;;;;;;7.35;4.00;;;;;;;26.31;43.88;99573.06;1762540;80;21806;-43
2022/06/01 09:45:33;;;;;;;9.23;4.37;;;;;;;26.27;44.58;99568.27;1709751;83;21896;-43
2022/06/01 09:49:42;;;;;;;5.58;4.15;;;;;;;26.51;43.66;99567.67;1786220;79;23945;-42
2022/06/01 09:52:13;;;;;;;9.25;4.58;;;;;;;26.41;44.57;99561.95;1761786;81;21042;-43
2022/06/01 09:54:46;;;;;;;7.00;4.25;;;;;;;26.48;44.35;99563.80;1761507;81;21741;-43
2022/06/01 09:57:30;;;;;;;6.25;4.03;;;;;;;26.45;43.91;99564.73;1777262;80;20956;-42
2022/06/01 10:08:30;;;;;;;5.00;3.70;;;;;;;26.37;44.99;99567.05;1782784;80;22114;-42
2022/06/01 10:11:08;;;;;;;8.05;3.92;;;;;;;26.46;43.90;99564.89;1782634;80;20918;-43
2022/06/01 10:13:48;;;;;;;4.00;3.50;;;;;;;26.59;43.86;99560.56;1782749;80;21844;-43
2022/06/01 10:16:47;;;;;;;6.80;3.77;;;;;;;26.65;43.06;99562.88;1783514;80;21103;-42
2022/06/01 10:19:17;;;;;;;5.90;4.25;;;;;;;26.69;43.01;99554.53;1787485;80;21075;-42
2022/06/01 10:21:58;;;;;;;;;;;;;;;26.89;43.58;99556.09;1790489;80;21214;-42
2022/06/01 10:24:33;;;;;;;4.65;3.60;;;;;;;27.10;42.13;99558.70;1787602;80;20100;-42
2022/06/01 10:27:00;;;;;;;7.72;4.25;;;;;;;27.15;41.47;99552.51;1788014;80;21541;-42
2022/06/01 10:29:35;;;;;;;6.17;3.98;;;;;;;27.30;41.81;99556.03;1761070;80;21390;-42
2022/06/01 10:32:09;;;;;;;6.05;4.00;;;;;;;27.46;42.30;99551.47;1756453;81;21505;-43
2022/06/01 10:34:56;;;;;;;5.62;3.65;;;;;;;27.66;41.83;99548.33;1756624;81;21803;-43
2022/06/01 10:37:44;;;;;;;7.50;4.10;;;;;;;27.89;41.06;99548.20;1757758;80;21271;-42
2022/06/01 10:40:19;;;;;;;6.45;3.70;;;;;;;28.07;41.37;99538.38;1755983;81;20926;-42
2022/06/01 10:43:18;;;;;;;5.53;3.60;;;;;;;28.20;40.91;99531.80;1779144;80;21069;-42
2022/06/01 10:45:54;;;;;;;7.15;4.03;;;;;;;28.21;40.64;99535.52;1745505;82;21557;-42
2022/06/01 10:48:30;;;;;;;5.40;3.55;;;;;;;28.16;40.71;99522.84;1774504;80;21798;-42
2022/06/01 10:51:27;;;;;;;4.75;3.17;;;;;;;28.18;40.00;99524.52;1782286;80;21012;-42
2022/06/01 10:54:28;;;;;;;5.97;4.00;;;;;;;28.25;40.64;99518.59;1782698;80;20965;-42
2022/06/01 10:56:56;;;;;;;6.78;3.47;;;;;;;28.36;39.73;99516.81;1782631;80;21087;-42
2022/06/01 10:59:22;;;;;;;6.05;3.62;;;;;;;28.49;39.34;99514.53;1782525;80;21032;-42
2022/06/01 11:02:27;;;;;;;6.83;3.40;;;;;;;28.69;39.33;99512.50;1729250;80;21269;-42
2022/06/01 11:05:32;;;;;;;4.87;3.40;;;;;;;29.01;39.38;99513.59;1782292;80;21025;-42
2022/06/01 11:08:08;;;;;;;8.15;3.90;;;;;;;29.49;39.16;99502.98;1781369;80;22080;-42
2022/06/01 11:11:02;;;;;;;4.70;3.62;;;;;;;29.88;37.98;99505.56;1782169;80;20926;-43
2022/06/01 11:14:00;;;;;;;8.33;4.08;;;;;;;30.01;37.28;99501.84;1696172;83;21681;-43
2022/06/01 11:16:54;;;;;;;7.00;4.00;;;;;;;30.03;37.01;99502.11;1778476;80;21100;-43
2022/06/01 11:19:59;;;;;;;5.83;3.20;;;;;;;30.21;36.99;99498.39;1782174;80;20921;-43
2022/06/01 11:23:04;;;;;;;8.65;3.50;;;;;;;30.61;35.41;99496.21;1782029;80;21032;-43
2022/06/01 11:25:55;;;;;;;5.15;2.95;;;;;;;30.90;35.30;99501.45;1767297;80;20973;-43
2022/06/01 11:28:45;;;;;;;5.62;2.95;;;;;;;30.94;34.57;99504.79;1782111;80;20996;-43
2022/06/01 11:31:23;;;;;;;3.85;3.02;;;;;;;30.73;33.99;99499.13;1781465;80;21900;-43
2022/06/01 11:34:19;;;;;;;6.25;3.10;;;;;;;30.42;34.72;99497.75;1782031;80;21024;-43
2022/06/01 11:37:16;;;;;;;5.08;3.00;;;;;;;30.43;34.70;99501.33;1782408;80;21040;-43
2022/06/01 11:40:03;;;;;;;5.15;3.05;;;;;;;30.42;34.51;99496.98;1781955;80;21012;-43
2022/06/01 11:42:50;;;;;;;4.15;2.92;;;;;;;30.52;34.20;99496.38;1782037;80;21550;-43
2022/06/01 11:45:20;;;;;;;8.15;3.10;;;;;;;30.44;34.09;99486.08;1782365;80;21218;-43
2022/06/01 11:47:54;;;;;;;7.17;3.00;;;;;;;30.44;34.21;99491.68;1779659;80;21108;-44
2022/06/01 11:50:58;;;;;;;3.65;2.98;;;;;;;30.54;33.94;99486.88;1767282;80;20995;-43
2022/06/01 11:53:55;;;;;;;3.80;2.77;;;;;;;30.80;33.99;99487.48;1747409;80;21008;-43
2022/06/01 11:56:38;;;;;;;4.60;2.77;;;;;;;31.20;33.40;99480.98;1735194;82;21116;-43
2022/06/01 11:59:29;;;;;;;5.53;2.40;;;;;;;31.65;33.76;99484.90;1731719;82;21547;-43
2022/06/01 12:03:03;;;;;;;5.20;2.85;;;;;;;32.21;33.09;99479.70;1759180;80;21517;-43
2022/06/01 12:04:58;;;;;;;4.17;2.95;;;;;;;32.80;31.98;99477.45;1752123;80;21066;-43
2022/06/01 12:07:36;;;;;;;4.70;2.98;;;;;;;33.18;30.82;99476.72;1776578;80;20918;-43
2022/06/01 12:10:08;;;;;;;4.12;2.55;;;;;;;33.40;31.07;99476.58;1773095;80;21583;-44
2022/06/01 12:12:41;;;;;;;5.75;2.60;;;;;;;33.85;29.91;99473.80;1771473;80;21275;-43
2022/06/01 12:15:40;;;;;;;3.55;2.50;;;;;;;34.46;28.89;99467.93;1773184;80;21068;-43
2022/06/01 12:18:21;;;;;;;;;;;;;;;34.83;28.01;99461.80;1718846;83;21123;-43
2022/06/01 12:20:50;;;;;;;2.75;2.35;;;;;;;34.87;28.48;99463.69;1716223;83;20184;-44
2022/06/01 12:29:02;;;;;;;3.58;2.67;;;;;;;34.18;28.26;99460.92;1774026;80;20953;-44
2022/06/01 12:31:40;;;;;;;3.70;2.62;;;;;;;34.05;29.13;99467.84;1773608;80;21078;-44
2022/06/01 12:34:19;;;;;;;4.97;2.95;;;;;;;34.14;29.50;99463.96;1759048;80;20910;-44